Airport View

Enter AWOS ICAO identifier for current METAR.

ex. KFNL

PATQ 192056Z AUTO 10017KT 10SM OVC015 M04/M06 A2966

19 Oct 2019 21:51

Frequency: 119.925

Phone: 907-633-2012

Other Area AWOS: PABR - PAWI

TAF PABR 191738Z 1918/2018 11016KT P6SM OVC025 FM201200 11013KT 4SM BR BKN007 OVC015 FM201500 11012KT P6SM OVC015